createdAt,value
2019-05-19T00:00:41.067Z,28.12
2019-05-19T00:03:10.265Z,27.17
2019-05-19T00:05:39.151Z,23.80
2019-05-19T00:08:08.018Z,25.17
2019-05-19T00:10:36.879Z,24.47
2019-05-19T00:13:05.734Z,23.87
2019-05-19T00:15:34.599Z,24.30
2019-05-19T00:18:03.467Z,24.57
2019-05-19T00:20:33.023Z,23.07
2019-05-19T00:23:02.120Z,22.62
2019-05-19T00:25:31.028Z,22.58
2019-05-19T00:27:59.936Z,22.87
2019-05-19T00:30:28.795Z,23.42
2019-05-19T00:32:57.660Z,21.33
2019-05-19T00:35:26.662Z,19.48
2019-05-19T00:37:56.039Z,19.10
2019-05-19T00:40:25.003Z,18.48
2019-05-19T00:42:53.871Z,16.90
2019-05-19T00:45:22.795Z,16.15
2019-05-19T00:47:51.655Z,18.55
2019-05-19T00:50:20.524Z,17.65
2019-05-19T00:52:49.679Z,15.93
2019-05-19T00:55:18.547Z,16.20
2019-05-19T00:57:47.963Z,13.32
2019-05-19T01:00:17.210Z,12.45
2019-05-19T01:02:46.072Z,12.85
2019-05-19T01:05:14.997Z,11.55
2019-05-19T01:07:43.864Z,12.03
2019-05-19T01:10:12.725Z,11.22
2019-05-19T01:12:41.583Z,10.03
2019-05-19T01:15:11.126Z,9.20
2019-05-19T01:17:40.066Z,9.50
2019-05-19T01:20:09.539Z,9.20
2019-05-19T01:22:38.521Z,8.45
2019-05-19T01:25:07.742Z,6.90
2019-05-19T01:27:37.770Z,5.37
2019-05-19T01:30:08.000Z,4.80
2019-05-19T01:32:36.862Z,4.35
2019-05-19T01:35:06.856Z,5.00
2019-05-19T01:37:36.021Z,5.28
2019-05-19T01:40:06.411Z,7.25
2019-05-19T01:42:35.639Z,8.38
2019-05-19T01:45:05.466Z,7.92
2019-05-19T01:47:34.387Z,5.20
2019-05-19T01:50:16.815Z,5.70
2019-05-19T01:52:34.979Z,7.30
2019-05-19T01:55:04.707Z,8.40
2019-05-19T01:57:33.572Z,11.20
2019-05-19T02:00:05.186Z,12.73
2019-05-19T02:02:34.117Z,13.90
2019-05-19T02:05:03.739Z,14.13
2019-05-19T02:07:32.619Z,14.58
2019-05-19T02:10:01.881Z,12.75
2019-05-19T02:12:31.579Z,12.58
2019-05-19T02:15:00.448Z,12.33
2019-05-19T02:17:29.312Z,12.65
2019-05-19T02:19:58.178Z,12.55
2019-05-19T02:22:28.119Z,13.32
2019-05-19T02:24:56.971Z,13.18
2019-05-19T02:27:25.844Z,14.38
2019-05-19T02:29:54.987Z,14.00
2019-05-19T02:32:23.840Z,13.78
2019-05-19T02:34:52.698Z,13.60
2019-05-19T02:37:21.569Z,12.82
2019-05-19T02:39:50.422Z,13.28
2019-05-19T02:42:20.055Z,13.85
2019-05-19T02:44:49.381Z,12.33
2019-05-19T02:47:19.116Z,10.38
2019-05-19T02:49:49.042Z,10.53
2019-05-19T02:52:19.144Z,10.90
2019-05-19T02:54:48.167Z,10.00
2019-05-19T02:57:17.096Z,6.80
2019-05-19T02:59:46.011Z,5.95
2019-05-19T03:02:15.036Z,5.85
2019-05-19T03:04:43.892Z,5.03
2019-05-19T03:07:12.999Z,5.25
2019-05-19T03:09:41.858Z,5.55
2019-05-19T03:12:10.709Z,5.70
2019-05-19T03:14:39.904Z,7.42
2019-05-19T03:17:08.727Z,7.87
2019-05-19T03:19:37.584Z,8.58
2019-05-19T03:22:06.495Z,8.15
2019-05-19T03:24:35.373Z,8.95
2019-05-19T03:27:04.217Z,8.95
2019-05-19T03:29:34.713Z,8.93
2019-05-19T03:32:11.803Z,7.28
2019-05-19T03:34:36.104Z,8.38
2019-05-19T03:37:05.259Z,8.18
2019-05-19T03:39:34.136Z,9.25
2019-05-19T03:42:02.992Z,9.45
2019-05-19T03:44:31.848Z,10.88
2019-05-19T03:47:01.680Z,10.35
2019-05-19T03:49:30.538Z,11.03
2019-05-19T03:52:00.174Z,11.33
2019-05-19T03:54:29.269Z,11.20
2019-05-19T03:56:58.132Z,11.75
2019-05-19T03:59:26.984Z,11.85
2019-05-19T04:01:55.862Z,11.85
2019-05-19T04:04:24.739Z,11.33
2019-05-19T04:06:53.654Z,11.63
2019-05-19T04:09:22.524Z,13.75
2019-05-19T04:11:51.549Z,13.80
2019-05-19T04:14:20.411Z,12.30
2019-05-19T04:16:50.845Z,12.40
2019-05-19T04:19:19.709Z,11.55
2019-05-19T04:21:49.674Z,11.45
2019-05-19T04:24:18.799Z,9.40
2019-05-19T04:26:47.656Z,10.08
2019-05-19T04:29:16.523Z,10.20
2019-05-19T04:31:45.389Z,8.68
2019-05-19T04:34:14.238Z,8.95
2019-05-19T04:36:43.105Z,9.43
2019-05-19T04:39:11.960Z,8.33
2019-05-19T04:41:40.815Z,8.98
2019-05-19T04:44:10.727Z,8.68
2019-05-19T04:46:39.599Z,9.25
2019-05-19T04:49:08.456Z,10.60
2019-05-19T04:51:37.310Z,9.70
2019-05-19T04:54:06.175Z,9.53
2019-05-19T04:56:35.106Z,8.50
2019-05-19T04:59:03.952Z,9.30
2019-05-19T05:01:32.811Z,9.38
2019-05-19T05:04:01.679Z,9.53
2019-05-19T05:06:30.536Z,9.00
2019-05-19T05:08:59.403Z,8.23
2019-05-19T05:11:28.255Z,8.88
2019-05-19T05:13:57.108Z,7.80
2019-05-19T05:16:25.955Z,8.30
2019-05-19T05:18:54.819Z,9.33
2019-05-19T05:21:23.666Z,9.90
2019-05-19T05:23:52.527Z,9.35
2019-05-19T05:26:21.396Z,9.28
2019-05-19T05:28:50.261Z,9.58
2019-05-19T05:31:19.103Z,9.10
2019-05-19T05:33:48.209Z,8.78
2019-05-19T05:36:17.068Z,7.92
2019-05-19T05:38:45.915Z,8.28
2019-05-19T05:41:14.767Z,7.53
2019-05-19T05:43:43.884Z,6.83
2019-05-19T05:46:12.743Z,6.40
2019-05-19T05:48:41.583Z,5.87
2019-05-19T05:51:10.446Z,6.20
2019-05-19T05:53:39.345Z,6.50
2019-05-19T05:56:08.222Z,6.58
2019-05-19T05:58:37.082Z,6.15
2019-05-19T06:01:05.930Z,6.00
2019-05-19T06:03:34.788Z,6.55
2019-05-19T06:06:03.774Z,6.03
2019-05-19T06:08:32.641Z,5.87
2019-05-19T06:11:01.504Z,5.58
2019-05-19T06:13:30.343Z,6.10
2019-05-19T06:15:59.199Z,5.97
2019-05-19T06:18:28.048Z,5.87
2019-05-19T06:20:56.898Z,6.53
2019-05-19T06:23:25.751Z,6.65
2019-05-19T06:25:54.627Z,6.50
2019-05-19T06:28:23.476Z,6.22
2019-05-19T06:30:52.507Z,6.47
2019-05-19T06:33:21.351Z,6.33
2019-05-19T06:35:51.323Z,6.22
2019-05-19T06:38:26.507Z,5.97
2019-05-19T06:40:55.437Z,5.90
2019-05-19T06:43:24.289Z,5.80
2019-05-19T06:45:53.211Z,5.70
2019-05-19T06:48:22.127Z,4.20
2019-05-19T06:50:50.986Z,3.98
2019-05-19T06:53:19.839Z,3.80
2019-05-19T06:55:48.688Z,3.58
2019-05-19T06:58:17.543Z,3.60
2019-05-19T07:00:46.392Z,4.00
2019-05-19T07:03:15.672Z,4.03
2019-05-19T07:05:45.592Z,4.37
2019-05-19T07:08:14.452Z,4.08
2019-05-19T07:10:43.307Z,5.00
2019-05-19T07:13:12.167Z,4.97
2019-05-19T07:15:41.064Z,4.83
2019-05-19T07:18:10.158Z,4.45
2019-05-19T07:20:39.003Z,4.85
2019-05-19T07:23:09.027Z,4.90
2019-05-19T07:25:37.882Z,4.80
2019-05-19T07:28:06.743Z,4.20
2019-05-19T07:30:35.589Z,4.72
2019-05-19T07:33:04.458Z,4.55
2019-05-19T07:35:33.318Z,4.42
2019-05-19T07:38:02.192Z,4.42
2019-05-19T07:40:31.099Z,4.20
2019-05-19T07:42:59.943Z,4.42
2019-05-19T07:45:28.811Z,3.90
2019-05-19T07:47:57.657Z,4.03
2019-05-19T07:50:26.515Z,4.47
2019-05-19T07:52:55.367Z,3.60
2019-05-19T07:55:24.232Z,4.30
2019-05-19T07:57:53.081Z,4.78
2019-05-19T08:00:22.283Z,4.67
2019-05-19T08:02:51.143Z,4.47
2019-05-19T08:05:20.005Z,4.53
2019-05-19T08:07:49.201Z,4.80
2019-05-19T08:10:18.091Z,4.28
2019-05-19T08:12:46.957Z,4.08
2019-05-19T08:15:16.071Z,4.40
2019-05-19T08:17:45.263Z,3.98
2019-05-19T08:20:14.183Z,4.00
2019-05-19T08:22:43.103Z,3.98
2019-05-19T08:25:11.948Z,3.98
2019-05-19T08:27:41.080Z,3.90
2019-05-19T08:30:10.500Z,4.78
2019-05-19T08:32:39.655Z,4.45
2019-05-19T08:35:08.852Z,4.33
2019-05-19T08:37:37.704Z,4.35
2019-05-19T08:40:06.741Z,4.45
2019-05-19T08:42:35.584Z,4.42
2019-05-19T08:45:06.583Z,3.80
2019-05-19T08:47:35.431Z,4.08
2019-05-19T08:50:07.183Z,3.30
2019-05-19T08:52:36.027Z,3.60
2019-05-19T08:55:05.255Z,3.40
2019-05-19T08:57:34.449Z,3.08
2019-05-19T09:00:04.466Z,2.85
2019-05-19T09:02:34.681Z,2.83
2019-05-19T09:05:04.602Z,2.70
2019-05-19T09:07:33.448Z,2.60
2019-05-19T09:10:02.575Z,2.60
2019-05-19T09:12:31.597Z,2.60
2019-05-19T09:15:00.805Z,3.00
2019-05-19T09:17:29.656Z,2.55
2019-05-19T09:19:58.516Z,2.50
2019-05-19T09:22:27.672Z,3.08
2019-05-19T09:24:56.774Z,2.87
2019-05-19T09:27:25.631Z,3.20
2019-05-19T09:29:54.479Z,2.90
2019-05-19T09:32:23.339Z,3.40
2019-05-19T09:34:53.256Z,2.95
2019-05-19T09:37:22.111Z,5.50
2019-05-19T09:39:52.495Z,5.60
2019-05-19T09:42:21.351Z,7.97
2019-05-19T09:44:50.316Z,3.17
2019-05-19T09:47:19.237Z,2.58
2019-05-19T09:49:48.339Z,2.98
2019-05-19T09:52:17.317Z,3.02
2019-05-19T09:54:46.265Z,2.70
2019-05-19T10:00:09.371Z,3.05
2019-05-19T10:02:38.788Z,3.00
2019-05-19T10:05:07.764Z,3.02
2019-05-19T10:07:36.660Z,3.20
2019-05-19T10:10:13.052Z,3.62
2019-05-19T10:12:41.922Z,3.70
2019-05-19T10:15:12.263Z,3.42
2019-05-19T10:17:41.171Z,3.25
2019-05-19T10:20:11.840Z,3.35
2019-05-19T10:22:41.048Z,3.30
2019-05-19T10:25:21.854Z,3.50
2019-05-19T10:27:40.966Z,3.47
2019-05-19T10:30:11.428Z,3.27
2019-05-19T10:32:40.343Z,3.62
2019-05-19T10:35:10.247Z,3.40
2019-05-19T10:37:39.119Z,3.30
2019-05-19T10:40:08.053Z,3.25
2019-05-19T10:42:37.315Z,3.50
2019-05-19T10:45:09.487Z,3.62
2019-05-19T10:47:38.339Z,3.87
2019-05-19T10:50:07.566Z,4.10
2019-05-19T10:52:37.482Z,3.85
2019-05-19T10:55:07.184Z,3.90
2019-05-19T10:57:36.359Z,4.12
2019-05-19T11:00:06.783Z,4.05
2019-05-19T11:02:36.695Z,3.70
2019-05-19T11:05:06.134Z,3.30
2019-05-19T11:07:34.996Z,3.50
2019-05-19T11:10:04.927Z,3.20
2019-05-19T11:12:34.194Z,3.70
2019-05-19T11:15:04.627Z,3.80
2019-05-19T11:17:33.607Z,3.83
2019-05-19T11:20:02.562Z,3.77
2019-05-19T11:22:31.404Z,3.25
2019-05-19T11:25:00.287Z,3.30
2019-05-19T11:27:29.162Z,3.50
2019-05-19T11:29:58.007Z,3.58
2019-05-19T11:32:26.866Z,3.50
2019-05-19T11:34:57.330Z,3.80
2019-05-19T11:37:26.196Z,3.85
2019-05-19T11:39:55.039Z,3.90
2019-05-19T11:42:23.904Z,3.90
2019-05-19T11:44:53.092Z,3.62
2019-05-19T11:47:21.946Z,3.90
2019-05-19T11:49:50.848Z,3.72
2019-05-19T11:52:19.757Z,4.20
2019-05-19T11:54:49.084Z,3.50
2019-05-19T11:57:17.936Z,4.00
2019-05-19T11:59:46.788Z,3.87
2019-05-19T12:02:15.644Z,3.70
2019-05-19T12:04:44.548Z,3.80
2019-05-19T12:07:13.844Z,4.00
2019-05-19T12:09:42.945Z,3.95
2019-05-19T12:12:12.055Z,4.00
2019-05-19T12:14:40.914Z,4.40
2019-05-19T12:17:09.832Z,4.08
2019-05-19T12:19:38.715Z,4.30
2019-05-19T12:22:07.832Z,4.30
2019-05-19T12:24:37.811Z,3.90
2019-05-19T12:27:06.676Z,4.17
2019-05-19T12:29:35.553Z,4.70
2019-05-19T12:32:04.400Z,4.53
2019-05-19T12:34:33.243Z,4.15
2019-05-19T12:37:02.114Z,4.20
2019-05-19T12:39:30.958Z,4.35
2019-05-19T12:41:59.897Z,5.00
2019-05-19T12:44:29.040Z,4.60
2019-05-19T12:46:58.205Z,5.53
2019-05-19T12:49:27.046Z,4.45
2019-05-19T12:51:55.910Z,4.30
2019-05-19T12:54:24.786Z,4.70
2019-05-19T12:56:53.627Z,4.17
2019-05-19T12:59:23.284Z,4.05
2019-05-19T13:01:52.481Z,4.35
2019-05-19T13:04:21.341Z,3.83
2019-05-19T13:06:50.243Z,3.90
2019-05-19T13:09:19.460Z,3.95
2019-05-19T13:11:50.128Z,3.85
2019-05-19T13:14:20.063Z,4.00
2019-05-19T13:16:48.920Z,3.83
2019-05-19T13:19:17.881Z,4.00
2019-05-19T13:21:47.138Z,3.65
2019-05-19T13:24:15.984Z,3.85
2019-05-19T13:26:55.998Z,3.72
2019-05-19T13:29:15.399Z,3.87
2019-05-19T13:31:44.504Z,3.90
2019-05-19T13:34:13.647Z,4.30
2019-05-19T13:36:42.753Z,4.20
2019-05-19T13:39:11.612Z,4.03
2019-05-19T13:41:40.459Z,3.98
2019-05-19T13:44:09.350Z,4.10
2019-05-19T13:46:38.432Z,3.98
2019-05-19T13:49:07.299Z,4.30
2019-05-19T13:51:36.148Z,4.08
2019-05-19T13:54:05.012Z,4.30
2019-05-19T13:56:33.870Z,3.80
2019-05-19T13:59:02.791Z,4.20
2019-05-19T14:01:31.723Z,3.75
2019-05-19T14:04:00.581Z,4.20
2019-05-19T14:06:29.822Z,4.20
2019-05-19T14:08:58.671Z,4.10
2019-05-19T14:11:27.520Z,3.98
2019-05-19T14:13:56.376Z,4.40
2019-05-19T14:16:25.220Z,4.33
2019-05-19T14:18:54.087Z,3.87
2019-05-19T14:21:22.998Z,4.03
2019-05-19T14:23:51.914Z,4.03
2019-05-19T14:26:20.763Z,3.98
2019-05-19T14:28:49.612Z,3.58
2019-05-19T14:31:18.472Z,3.77
2019-05-19T14:33:47.327Z,3.60
2019-05-19T14:36:16.208Z,3.80
2019-05-19T14:39:05.418Z,3.55
2019-05-19T14:41:36.819Z,3.58
2019-05-19T14:44:06.737Z,3.87
2019-05-19T14:46:35.598Z,3.37
2019-05-19T14:49:04.459Z,3.80
2019-05-19T14:51:33.396Z,3.52
2019-05-19T14:54:03.548Z,3.90
2019-05-19T14:56:33.784Z,3.60
2019-05-19T14:59:03.171Z,3.40
2019-05-19T15:01:32.505Z,3.40
2019-05-19T15:04:01.361Z,3.60
2019-05-19T15:06:30.217Z,3.45
2019-05-19T15:08:59.714Z,3.80
2019-05-19T15:11:29.005Z,3.80
2019-05-19T15:13:57.923Z,3.87
2019-05-19T15:16:26.784Z,3.62
2019-05-19T15:18:55.632Z,3.90
2019-05-19T15:21:24.492Z,3.67
2019-05-19T15:23:53.353Z,4.00
2019-05-19T15:26:22.215Z,4.12
2019-05-19T15:28:51.070Z,4.08
2019-05-19T15:31:19.935Z,3.50
2019-05-19T15:33:48.790Z,3.55
2019-05-19T15:36:17.647Z,3.83
2019-05-19T15:38:46.508Z,3.58
2019-05-19T15:41:15.360Z,3.80
2019-05-19T15:43:44.532Z,3.50
2019-05-19T15:46:13.384Z,3.50
2019-05-19T15:48:42.235Z,3.22
2019-05-19T15:51:11.091Z,3.98
2019-05-19T15:53:40.281Z,3.58
2019-05-19T15:56:09.133Z,3.47
2019-05-19T15:58:37.987Z,3.30
2019-05-19T16:01:06.838Z,3.37
2019-05-19T16:03:35.683Z,3.33
2019-05-19T16:06:04.618Z,3.33
2019-05-19T16:08:33.483Z,3.25
2019-05-19T16:11:02.853Z,3.17
2019-05-19T16:13:31.949Z,3.90
2019-05-19T16:16:00.820Z,3.20
2019-05-19T16:18:29.674Z,3.37
2019-05-19T16:20:58.531Z,3.50
2019-05-19T16:23:27.384Z,3.72
2019-05-19T16:25:56.250Z,3.77
2019-05-19T16:28:30.571Z,3.70
2019-05-19T16:30:55.739Z,3.90
2019-05-19T16:33:25.658Z,3.37
2019-05-19T16:35:54.511Z,3.55
2019-05-19T16:38:23.354Z,3.55
2019-05-19T16:40:52.652Z,4.05
2019-05-19T16:43:21.637Z,4.45
2019-05-19T16:45:50.496Z,4.35
2019-05-19T16:48:19.361Z,4.28
2019-05-19T16:50:48.226Z,4.42
2019-05-19T16:53:17.125Z,4.87
2019-05-19T16:55:46.016Z,4.40
2019-05-19T16:58:21.280Z,4.87
2019-05-19T17:00:45.468Z,5.25
2019-05-19T17:03:15.443Z,5.35
2019-05-19T17:05:44.290Z,5.75
2019-05-19T17:08:13.161Z,4.65
2019-05-19T17:10:42.003Z,5.37
2019-05-19T17:13:10.856Z,4.53
2019-05-19T17:15:39.710Z,4.47
2019-05-19T17:18:08.575Z,4.22
2019-05-19T17:20:37.731Z,3.65
2019-05-19T17:23:06.642Z,3.98
2019-05-19T17:25:35.500Z,4.00
2019-05-19T17:28:05.523Z,4.65
2019-05-19T17:30:34.380Z,4.03
2019-05-19T17:33:03.254Z,3.85
2019-05-19T17:35:32.179Z,3.58
2019-05-19T17:38:03.895Z,3.67
2019-05-19T17:40:33.074Z,4.80
2019-05-19T17:43:01.922Z,4.12
2019-05-19T17:45:31.860Z,3.98
2019-05-19T17:48:09.551Z,3.75
2019-05-19T17:50:33.070Z,3.60
2019-05-19T17:53:02.091Z,3.52
2019-05-19T17:55:32.323Z,3.95
2019-05-19T17:58:02.095Z,3.22
2019-05-19T18:00:33.470Z,3.95
2019-05-19T18:03:02.859Z,3.67
2019-05-19T18:05:31.776Z,3.47
2019-05-19T18:08:00.659Z,3.50
2019-05-19T18:10:29.576Z,3.80
2019-05-19T18:12:58.447Z,3.60
2019-05-19T18:15:27.847Z,3.62
2019-05-19T18:17:56.824Z,3.72
2019-05-19T18:20:25.677Z,3.90
2019-05-19T18:22:55.098Z,3.80
2019-05-19T18:25:24.920Z,3.60
2019-05-19T18:27:53.805Z,4.15
2019-05-19T18:30:22.675Z,3.90
2019-05-19T18:32:54.292Z,3.92
2019-05-19T18:35:23.215Z,4.10
2019-05-19T18:37:52.163Z,4.53
2019-05-19T18:40:21.103Z,4.05
2019-05-19T18:42:49.953Z,4.40
2019-05-19T18:45:18.818Z,4.70
2019-05-19T18:47:47.960Z,5.03
2019-05-19T18:50:16.884Z,5.37
2019-05-19T18:52:45.741Z,5.90
2019-05-19T18:55:14.608Z,5.45
2019-05-19T18:57:43.473Z,5.05
2019-05-19T19:00:12.423Z,5.08
2019-05-19T19:02:41.281Z,4.95
2019-05-19T19:05:10.134Z,4.67
2019-05-19T19:07:52.663Z,4.80
2019-05-19T19:10:21.586Z,5.08
2019-05-19T19:12:50.436Z,4.47
2019-05-19T19:15:19.778Z,4.47
2019-05-19T19:17:48.675Z,4.60
2019-05-19T19:20:20.052Z,4.75
2019-05-19T19:22:48.877Z,5.37
2019-05-19T19:25:18.049Z,5.37
2019-05-19T19:27:46.899Z,5.70
2019-05-19T19:30:16.835Z,5.97
2019-05-19T19:32:48.448Z,6.03
2019-05-19T19:35:17.311Z,7.15
2019-05-19T19:37:46.240Z,6.97
2019-05-19T19:40:33.424Z,6.45
2019-05-19T19:43:05.950Z,5.30
2019-05-19T19:45:40.678Z,5.70
2019-05-19T19:48:11.055Z,12.98
2019-05-19T19:50:39.926Z,10.28
2019-05-19T19:53:08.776Z,6.22
2019-05-19T19:55:37.639Z,5.60
2019-05-19T19:58:06.511Z,5.20
2019-05-19T20:00:37.373Z,5.17
2019-05-19T20:03:07.368Z,5.92
2019-05-19T20:05:36.355Z,5.17
2019-05-19T20:08:05.801Z,5.50
2019-05-19T20:10:35.916Z,6.22
2019-05-19T20:13:05.241Z,5.08
2019-05-19T20:15:34.660Z,5.70
2019-05-19T20:18:03.793Z,6.08
2019-05-19T20:20:32.656Z,5.53
2019-05-19T20:23:01.592Z,5.28
2019-05-19T20:25:32.090Z,5.15
2019-05-19T20:28:01.548Z,5.35
2019-05-19T20:30:35.628Z,5.53
2019-05-19T20:33:01.011Z,5.90
2019-05-19T20:35:33.141Z,5.87
2019-05-19T20:38:03.103Z,5.80
2019-05-19T20:40:53.158Z,5.47
2019-05-19T20:43:31.991Z,5.95
2019-05-19T20:46:02.410Z,5.50
2019-05-19T20:51:43.729Z,5.33
2019-05-19T20:54:18.872Z,5.87
2019-05-19T20:56:47.715Z,5.60
2019-05-19T20:59:16.612Z,5.60
2019-05-19T21:01:48.147Z,5.78
2019-05-19T21:04:17.459Z,5.15
2019-05-19T21:06:47.166Z,5.35
2019-05-19T21:09:16.985Z,5.78
2019-05-19T21:11:45.831Z,6.20
2019-05-19T21:14:17.598Z,5.70
2019-05-19T21:16:46.553Z,5.50
2019-05-19T21:19:15.880Z,5.65
2019-05-19T21:21:45.039Z,6.15
2019-05-19T21:24:13.894Z,5.53
2019-05-19T21:26:42.749Z,5.37
2019-05-19T21:29:12.427Z,5.60
2019-05-19T21:31:41.297Z,5.83
2019-05-19T21:34:10.162Z,5.67
2019-05-19T21:36:39.009Z,5.53
2019-05-19T21:39:07.877Z,5.83
2019-05-19T21:41:36.744Z,5.92
2019-05-19T21:44:05.623Z,6.25
2019-05-19T21:46:34.460Z,5.65
2019-05-19T21:49:03.322Z,5.85
2019-05-19T21:51:32.491Z,5.75
2019-05-19T21:54:01.363Z,5.70
2019-05-19T21:56:30.222Z,6.30
2019-05-19T21:58:59.091Z,6.05
2019-05-19T22:01:27.954Z,5.28
2019-05-19T22:03:56.839Z,5.70
2019-05-19T22:06:27.335Z,6.05
2019-05-19T22:08:56.195Z,5.45
2019-05-19T22:11:25.054Z,5.65
2019-05-19T22:13:54.167Z,5.87
2019-05-19T22:16:23.039Z,5.87
2019-05-19T22:18:51.884Z,5.50
2019-05-19T22:21:20.743Z,6.33
2019-05-19T22:23:49.604Z,5.60
2019-05-19T22:26:18.472Z,5.60
2019-05-19T22:28:47.314Z,6.12
2019-05-19T22:31:16.189Z,6.33
2019-05-19T22:33:45.043Z,6.50
2019-05-19T22:36:13.938Z,5.80
2019-05-19T22:38:42.806Z,5.65
2019-05-19T22:41:11.661Z,5.60
2019-05-19T22:43:40.543Z,5.90
2019-05-19T22:46:09.407Z,5.83
2019-05-19T22:48:38.415Z,5.97
2019-05-19T22:51:07.275Z,6.17
2019-05-19T22:53:36.136Z,5.62
2019-05-19T22:56:05.001Z,6.12
2019-05-19T22:58:33.867Z,5.80
2019-05-19T23:01:02.715Z,5.50
2019-05-19T23:03:31.572Z,6.12
2019-05-19T23:06:00.671Z,5.95
2019-05-19T23:08:29.537Z,5.80
2019-05-19T23:10:58.455Z,6.05
2019-05-19T23:13:28.391Z,6.67
2019-05-19T23:15:57.347Z,5.30
2019-05-19T23:18:26.191Z,5.65
2019-05-19T23:20:55.041Z,5.35
2019-05-19T23:23:24.350Z,5.42
2019-05-19T23:25:53.436Z,5.78
2019-05-19T23:28:22.535Z,6.17
2019-05-19T23:30:51.404Z,5.90
2019-05-19T23:33:20.339Z,6.10
2019-05-19T23:35:49.207Z,5.40
2019-05-19T23:38:19.148Z,5.83
2019-05-19T23:40:48.011Z,5.20
2019-05-19T23:43:17.937Z,5.97
2019-05-19T23:45:46.789Z,6.08
2019-05-19T23:48:15.654Z,5.97
2019-05-19T23:50:44.496Z,6.03
2019-05-19T23:53:13.632Z,6.33
2019-05-19T23:55:42.491Z,5.47
2019-05-19T23:58:11.354Z,5.83
